Time;durP1;ratioP1;P1;durP2;ratioP2;P2;SDS_P1;SDS_P2;PMS_P1;PMS_P2;Temp;Humidity;BMP_temperature;BMP_pressure;BME280_temperature;BME280_humidity;BME280_pressure;Samples;Min_cycle;Max_cycle;Signal;HPM_P1;HPM_P2
2023/07/30 00:00:57;;;;;;;2.80;2.60;;;21.10;57.10;;;;;;5057010;28;20157;-85
2023/07/30 00:03:23;;;;;;;2.55;2.35;;;21.00;57.10;;;;;;5073659;28;20516;-84
2023/07/30 00:05:56;;;;;;;2.72;2.45;;;21.10;57.10;;;;;;5073595;28;20155;-83
2023/07/30 00:08:22;;;;;;;2.80;2.38;;;21.00;57.10;;;;;;5073761;28;20177;-83
2023/07/30 00:10:47;;;;;;;2.75;2.30;;;21.10;57.10;;;;;;5073338;28;20213;-87
2023/07/30 00:13:13;;;;;;;2.53;2.30;;;21.10;57.10;;;;;;5056654;28;20201;-86
2023/07/30 00:15:39;;;;;;;2.67;2.47;;;21.00;57.10;;;;;;5073303;28;20165;-84
2023/07/30 00:18:05;;;;;;;2.78;2.58;;;21.00;57.10;;;;;;5073235;28;20168;-83
2023/07/30 00:20:31;;;;;;;2.63;2.42;;;21.00;57.10;;;;;;5073271;28;20248;-84
2023/07/30 00:22:57;;;;;;;2.90;2.40;;;21.10;57.20;;;;;;5073561;28;20161;-86
2023/07/30 00:25:23;;;;;;;2.30;2.10;;;21.00;57.10;;;;;;5074366;28;20158;-84
2023/07/30 00:27:49;;;;;;;2.63;2.42;;;21.00;57.20;;;;;;5056871;28;20161;-85
2023/07/30 00:30:15;;;;;;;2.63;2.42;;;21.00;57.10;;;;;;5073062;28;20150;-85
2023/07/30 00:32:43;;;;;;;2.55;2.35;;;21.00;57.30;;;;;;5056584;28;20194;-86
2023/07/30 00:35:09;;;;;;;2.95;2.45;;;21.00;57.20;;;;;;5072921;28;20532;-85
2023/07/30 00:37:36;;;;;;;2.55;2.33;;;21.00;57.20;;;;;;5073438;28;20165;-85
2023/07/30 00:40:03;;;;;;;2.70;2.40;;;20.90;57.90;;;;;;5072627;28;20162;-86
2023/07/30 00:42:29;;;;;;;2.65;2.45;;;21.00;57.30;;;;;;5074082;28;20157;-85
2023/07/30 00:44:55;;;;;;;2.60;2.40;;;21.00;57.30;;;;;;5074261;28;20157;-85
2023/07/30 00:47:21;;;;;;;2.70;2.35;;;21.00;57.30;;;;;;5073904;28;20145;-84
2023/07/30 00:49:48;;;;;;;2.50;2.30;;;21.00;57.40;;;;;;5072929;28;20581;-84
2023/07/30 00:52:15;;;;;;;2.83;2.40;;;21.00;57.40;;;;;;5072877;28;20264;-88
2023/07/30 00:54:41;;;;;;;2.80;2.50;;;21.00;57.30;;;;;;5073834;28;20257;-85
2023/07/30 00:57:07;;;;;;;2.80;2.55;;;21.00;57.30;;;;;;5056284;28;20676;-85
2023/07/30 00:59:33;;;;;;;2.60;2.40;;;21.00;57.40;;;;;;5072567;28;20153;-84
2023/07/30 01:01:59;;;;;;;3.20;2.72;;;21.00;57.50;;;;;;5072536;28;20157;-86
2023/07/30 01:04:26;;;;;;;2.97;2.67;;;21.00;57.40;;;;;;5072568;28;20158;-85
2023/07/30 01:06:52;;;;;;;2.75;2.40;;;21.00;57.50;;;;;;5072340;28;20169;-84
2023/07/30 01:09:18;;;;;;;2.50;2.30;;;21.00;57.50;;;;;;5072096;28;20561;-87
2023/07/30 01:11:43;;;;;;;2.55;2.33;;;21.00;57.50;;;;;;5072423;28;20231;-86
2023/07/30 01:14:09;;;;;;;2.63;2.40;;;21.00;57.50;;;;;;5073609;28;20185;-86
2023/07/30 01:16:36;;;;;;;2.53;2.33;;;21.00;57.50;;;;;;5073639;28;20161;-83
2023/07/30 01:19:04;;;;;;;2.88;2.47;;;20.90;57.50;;;;;;5073537;28;20156;-85
2023/07/30 01:21:34;;;;;;;2.75;2.47;;;20.90;57.50;;;;;;5055864;28;20647;-84
2023/07/30 01:24:00;;;;;;;2.30;2.10;;;21.00;57.50;;;;;;5072178;28;20165;-85
2023/07/30 01:26:30;;;;;;;3.10;2.60;;;20.90;57.60;;;;;;5072411;28;20179;-86
2023/07/30 01:28:57;;;;;;;2.50;2.30;;;20.80;57.50;;;;;;5073758;28;20149;-85
2023/07/30 01:31:25;;;;;;;2.95;2.50;;;20.90;57.50;;;;;;5073494;28;20154;-82
2023/07/30 01:33:52;;;;;;;2.70;2.40;;;20.90;57.60;;;;;;5071966;28;20193;-87
2023/07/30 01:36:18;;;;;;;2.60;2.22;;;20.90;57.50;;;;;;5071969;28;20587;-84
2023/07/30 01:38:44;;;;;;;2.42;2.22;;;20.90;57.60;;;;;;5072203;28;20157;-85
2023/07/30 01:41:10;;;;;;;3.50;2.70;;;21.00;57.60;;;;;;5071919;28;20203;-85
2023/07/30 01:43:36;;;;;;;3.22;2.70;;;20.90;57.60;;;;;;5055305;28;20161;-85
2023/07/30 01:46:02;;;;;;;2.67;2.47;;;21.00;57.70;;;;;;5073124;28;20158;-85
2023/07/30 01:48:28;;;;;;;2.60;2.40;;;20.90;57.60;;;;;;5055353;28;20157;-82
2023/07/30 01:50:54;;;;;;;2.72;2.40;;;20.90;57.70;;;;;;5073176;28;20157;-86
2023/07/30 01:53:20;;;;;;;2.92;2.30;;;20.90;57.70;;;;;;5075446;28;20193;-85
2023/07/30 01:55:46;;;;;;;2.85;2.42;;;21.00;57.80;;;;;;5077295;28;20193;-86
2023/07/30 01:58:13;;;;;;;2.83;2.38;;;20.90;57.70;;;;;;5077477;28;20612;-86
2023/07/30 02:00:39;;;;;;;3.22;2.70;;;20.90;57.80;;;;;;5077124;28;20156;-87
2023/07/30 02:03:05;;;;;;;2.45;2.25;;;20.90;57.70;;;;;;5077166;28;20176;-86
2023/07/30 02:05:31;;;;;;;2.90;2.50;;;20.90;57.70;;;;;;5059168;28;20612;-84
2023/07/30 02:07:58;;;;;;;2.80;2.40;;;20.90;57.70;;;;;;5075949;28;20579;-86
2023/07/30 02:10:25;;;;;;;3.00;2.53;;;20.90;57.70;;;;;;5076195;28;20227;-85
2023/07/30 02:12:51;;;;;;;2.70;2.30;;;20.90;57.80;;;;;;5076851;28;20656;-85
2023/07/30 02:15:17;;;;;;;2.65;2.45;;;20.90;57.70;;;;;;5075782;28;20172;-87
2023/07/30 02:17:43;;;;;;;2.55;2.33;;;20.90;57.70;;;;;;5077168;28;20608;-85
2023/07/30 02:20:09;;;;;;;2.80;2.50;;;20.90;57.80;;;;;;5075658;28;20158;-85
2023/07/30 02:22:35;;;;;;;2.50;2.30;;;20.80;57.80;;;;;;5075691;28;20161;-86
2023/07/30 02:25:01;;;;;;;2.80;2.60;;;20.90;57.80;;;;;;5058720;28;20612;-83
2023/07/30 02:27:27;;;;;;;2.90;2.60;;;20.90;57.90;;;;;;5075470;28;20163;-85
2023/07/30 02:29:53;;;;;;;3.00;2.42;;;20.90;57.80;;;;;;5075496;28;20165;-86
2023/07/30 02:32:19;;;;;;;2.65;2.45;;;20.90;57.80;;;;;;5075358;28;20193;-85
2023/07/30 02:34:45;;;;;;;2.95;2.30;;;20.90;57.80;;;;;;5075251;28;20149;-85
2023/07/30 02:37:10;;;;;;;2.17;1.98;;;20.90;57.90;;;;;;5075396;28;20149;-85
2023/07/30 02:39:36;;;;;;;2.70;2.50;;;20.80;57.90;;;;;;5076630;28;20153;-85
2023/07/30 02:42:03;;;;;;;2.75;2.40;;;20.80;57.80;;;;;;5076453;28;20599;-84
2023/07/30 02:44:29;;;;;;;2.75;2.47;;;20.80;58.20;;;;;;5058778;28;20157;-84
2023/07/30 02:46:55;;;;;;;2.60;2.40;;;20.80;57.80;;;;;;5074959;28;20184;-87
2023/07/30 02:49:21;;;;;;;2.60;2.40;;;20.80;57.90;;;;;;5076228;28;20604;-87
2023/07/30 02:51:48;;;;;;;2.85;2.53;;;20.80;57.90;;;;;;5058261;28;20168;-84
2023/07/30 02:54:15;;;;;;;2.72;2.50;;;20.80;57.90;;;;;;5074916;28;20173;-87
2023/07/30 02:56:42;;;;;;;2.40;2.20;;;20.80;58.00;;;;;;5075201;28;20153;-85
2023/07/30 02:59:08;;;;;;;2.85;2.55;;;20.80;57.90;;;;;;5076442;28;20169;-85
2023/07/30 03:01:35;;;;;;;2.70;2.50;;;20.80;57.90;;;;;;5058117;28;20161;-87
2023/07/30 03:04:01;;;;;;;2.97;2.65;;;20.80;57.90;;;;;;5074689;28;20745;-84
2023/07/30 03:06:27;;;;;;;2.85;2.50;;;20.80;57.90;;;;;;5074754;28;20158;-84
2023/07/30 03:08:52;;;;;;;2.33;2.13;;;20.80;58.00;;;;;;5074397;28;20154;-86
2023/07/30 03:11:18;;;;;;;3.05;2.75;;;20.80;58.00;;;;;;5057893;28;20249;-88
2023/07/30 03:13:44;;;;;;;2.72;2.35;;;20.80;58.10;;;;;;5076192;28;20647;-86
2023/07/30 03:16:10;;;;;;;3.13;2.80;;;20.90;58.10;;;;;;5074544;28;20183;-84
2023/07/30 03:18:36;;;;;;;3.10;2.55;;;20.80;58.00;;;;;;5074841;28;20165;-85
2023/07/30 03:21:03;;;;;;;2.67;2.42;;;20.80;58.00;;;;;;5058286;28;20165;-87
2023/07/30 03:23:29;;;;;;;2.97;2.55;;;20.80;58.00;;;;;;5057858;28;20620;-86
2023/07/30 03:25:55;;;;;;;2.60;2.40;;;20.80;58.00;;;;;;5074447;28;20172;-87
2023/07/30 03:28:21;;;;;;;2.90;2.60;;;20.80;58.10;;;;;;5074310;28;20683;-86
2023/07/30 03:30:47;;;;;;;2.40;2.20;;;20.80;58.10;;;;;;5075476;28;20157;-84
2023/07/30 03:33:13;;;;;;;2.33;2.13;;;20.80;58.10;;;;;;5057410;28;20197;-86
2023/07/30 03:35:39;;;;;;;3.08;2.58;;;20.80;58.00;;;;;;5057508;28;20634;-84
2023/07/30 03:38:05;;;;;;;2.80;2.60;;;20.80;58.10;;;;;;5074152;28;20164;-85
2023/07/30 03:40:30;;;;;;;2.95;2.60;;;20.80;58.10;;;;;;5074221;28;20154;-84
2023/07/30 03:43:00;;;;;;;2.72;2.53;;;20.80;58.20;;;;;;5075243;28;20153;-87
2023/07/30 03:45:26;;;;;;;2.53;2.33;;;20.80;58.20;;;;;;5073530;28;20260;-86
2023/07/30 03:47:56;;;;;;;2.50;2.30;;;20.80;58.20;;;;;;5073945;28;20303;-87
2023/07/30 03:50:22;;;;;;;2.63;2.30;;;20.80;58.10;;;;;;5040168;28;20270;-85
2023/07/30 03:52:48;;;;;;;2.45;2.22;;;20.80;58.20;;;;;;5075009;28;20225;-86
2023/07/30 03:55:14;;;;;;;2.80;2.35;;;20.80;58.20;;;;;;5057171;28;20165;-85
2023/07/30 03:57:40;;;;;;;2.80;2.50;;;20.80;58.20;;;;;;5057175;28;20157;-87
2023/07/30 04:00:06;;;;;;;2.70;2.35;;;20.80;58.20;;;;;;5074963;28;20612;-88
2023/07/30 04:02:32;;;;;;;2.63;2.42;;;20.80;58.20;;;;;;5075213;28;20165;-84
2023/07/30 04:04:58;;;;;;;2.80;2.50;;;20.70;58.10;;;;;;5073607;28;20660;-86
2023/07/30 04:07:24;;;;;;;2.47;2.25;;;20.80;58.20;;;;;;5057475;28;20288;-85
2023/07/30 04:09:50;;;;;;;2.95;2.47;;;20.80;58.30;;;;;;5074740;28;20586;-86
2023/07/30 04:12:16;;;;;;;2.65;2.45;;;20.70;58.20;;;;;;5074682;28;20572;-86
2023/07/30 04:14:42;;;;;;;2.47;2.25;;;20.80;58.30;;;;;;5056299;28;20169;-86
2023/07/30 04:17:07;;;;;;;2.50;2.30;;;20.70;58.20;;;;;;5073419;28;20154;-83
2023/07/30 04:19:33;;;;;;;2.92;2.47;;;20.70;58.30;;;;;;5073311;28;20171;-85
2023/07/30 04:21:59;;;;;;;2.55;2.25;;;20.70;58.20;;;;;;5073275;28;20161;-86
2023/07/30 04:24:26;;;;;;;2.83;2.50;;;20.80;58.30;;;;;;5056545;28;20641;-83
2023/07/30 04:26:52;;;;;;;2.60;2.35;;;20.70;58.30;;;;;;5073304;28;20153;-84
2023/07/30 04:29:18;;;;;;;2.38;2.17;;;20.70;58.20;;;;;;5073109;28;20538;-85
2023/07/30 04:31:44;;;;;;;2.40;2.20;;;20.70;58.30;;;;;;5056492;28;20684;-84
2023/07/30 04:34:10;;;;;;;3.05;2.47;;;20.70;58.30;;;;;;5057175;28;20647;-84
2023/07/30 04:36:36;;;;;;;2.67;2.35;;;20.70;58.30;;;;;;5073046;28;20614;-84
2023/07/30 04:39:02;;;;;;;2.65;2.42;;;20.70;58.30;;;;;;5073259;28;20165;-83
2023/07/30 04:41:28;;;;;;;3.05;2.53;;;20.70;58.30;;;;;;5072949;28;20153;-86
2023/07/30 04:43:54;;;;;;;2.40;2.20;;;20.70;58.40;;;;;;5072809;28;20177;-86
2023/07/30 04:46:19;;;;;;;2.58;2.38;;;20.70;58.50;;;;;;5072909;28;20181;-85
2023/07/30 04:48:45;;;;;;;2.65;2.30;;;20.70;58.40;;;;;;5072556;28;20620;-85
2023/07/30 04:51:11;;;;;;;2.65;2.42;;;20.70;58.40;;;;;;5072800;28;20149;-84
2023/07/30 04:53:37;;;;;;;2.80;2.53;;;20.70;58.50;;;;;;5055961;28;20694;-86
2023/07/30 04:56:03;;;;;;;2.95;2.65;;;20.60;58.30;;;;;;5072652;28;20660;-87
2023/07/30 04:58:29;;;;;;;2.80;2.50;;;20.70;58.40;;;;;;5074024;28;20153;-86
2023/07/30 05:00:55;;;;;;;2.75;2.45;;;20.70;58.40;;;;;;5073810;28;20176;-86
2023/07/30 05:03:21;;;;;;;2.92;2.45;;;20.70;58.40;;;;;;5072477;28;20165;-86
2023/07/30 05:05:47;;;;;;;2.35;2.15;;;20.70;58.40;;;;;;5055785;28;20173;-86
2023/07/30 05:08:12;;;;;;;2.60;2.40;;;20.70;58.50;;;;;;5072381;28;20169;-86
2023/07/30 05:10:38;;;;;;;2.92;2.47;;;20.70;58.40;;;;;;5072349;28;20224;-86
2023/07/30 05:13:04;;;;;;;2.63;2.28;;;20.70;58.50;;;;;;5072272;28;20197;-87
2023/07/30 05:15:30;;;;;;;2.90;2.60;;;20.70;58.50;;;;;;5055656;28;20169;-86
2023/07/30 05:17:56;;;;;;;2.65;2.35;;;20.70;58.50;;;;;;5055811;28;20252;-86
2023/07/30 05:20:22;;;;;;;2.50;2.30;;;20.70;58.50;;;;;;5073562;28;20296;-84
2023/07/30 05:22:48;;;;;;;2.40;2.20;;;20.60;58.50;;;;;;5072223;28;20154;-84
2023/07/30 05:25:14;;;;;;;2.70;2.45;;;20.70;58.50;;;;;;5055532;28;20577;-84
2023/07/30 05:27:40;;;;;;;2.60;2.20;;;20.70;58.50;;;;;;5071365;28;20168;-84
2023/07/30 05:30:06;;;;;;;2.35;2.15;;;20.70;58.60;;;;;;5055461;28;20153;-82
2023/07/30 05:32:32;;;;;;;2.60;2.40;;;20.70;58.60;;;;;;5072037;28;20189;-86
2023/07/30 05:34:58;;;;;;;2.83;2.50;;;20.70;58.60;;;;;;5055812;28;20214;-84
2023/07/30 05:37:24;;;;;;;3.05;2.60;;;20.70;58.60;;;;;;5072249;28;20627;-84
2023/07/30 05:39:50;;;;;;;3.03;2.35;;;20.70;58.60;;;;;;5073309;28;20181;-83
2023/07/30 05:42:16;;;;;;;2.55;2.35;;;20.70;58.70;;;;;;5072142;28;20592;-85
2023/07/30 05:44:42;;;;;;;2.47;2.20;;;20.60;58.60;;;;;;5055199;28;20173;-86
2023/07/30 05:47:08;;;;;;;2.60;2.40;;;20.70;58.70;;;;;;5055241;28;20158;-86
2023/07/30 05:49:34;;;;;;;3.20;2.40;;;20.70;58.70;;;;;;5072016;28;20632;-82
2023/07/30 05:52:00;;;;;;;2.58;2.38;;;20.70;58.70;;;;;;5073348;28;20188;-87
2023/07/30 05:54:26;;;;;;;2.42;2.20;;;20.70;58.60;;;;;;5056003;28;20158;-85
2023/07/30 05:56:52;;;;;;;2.60;2.30;;;20.70;58.60;;;;;;5072134;28;20181;-83
2023/07/30 05:59:18;;;;;;;2.75;2.55;;;20.70;58.60;;;;;;5072247;28;20153;-87
2023/07/30 06:01:44;;;;;;;3.50;2.40;;;20.70;58.60;;;;;;5071806;28;20158;-86
2023/07/30 06:04:10;;;;;;;2.50;2.30;;;20.70;58.60;;;;;;5071931;28;20165;-85
2023/07/30 06:06:36;;;;;;;2.65;2.45;;;20.70;58.70;;;;;;5073132;28;20296;-83
2023/07/30 06:09:01;;;;;;;2.50;2.30;;;20.60;58.70;;;;;;5054914;28;20169;-87
2023/07/30 06:11:27;;;;;;;2.65;2.40;;;20.70;58.70;;;;;;5071632;28;20624;-86
2023/07/30 06:13:54;;;;;;;2.78;2.42;;;20.60;58.70;;;;;;5072965;28;20224;-85
2023/07/30 06:16:20;;;;;;;2.40;2.20;;;20.70;58.70;;;;;;5071995;28;20242;-87
2023/07/30 06:18:47;;;;;;;2.83;2.53;;;20.70;58.70;;;;;;5055694;28;20168;-85
2023/07/30 06:21:12;;;;;;;2.50;2.30;;;20.60;59.40;;;;;;5055400;28;20174;-82
2023/07/30 06:23:38;;;;;;;2.70;2.25;;;20.70;58.70;;;;;;5071729;28;20256;-85
2023/07/30 06:26:04;;;;;;;2.42;2.22;;;20.70;58.70;;;;;;5071902;28;20153;-83
2023/07/30 06:28:30;;;;;;;2.28;2.08;;;20.70;58.70;;;;;;5071970;28;20612;-85
2023/07/30 06:30:59;;;;;;;2.47;2.20;;;20.70;58.70;;;;;;5071574;28;20184;-85
2023/07/30 06:33:25;;;;;;;2.70;2.33;;;20.70;58.70;;;;;;5072651;28;20196;-85
2023/07/30 06:35:51;;;;;;;3.10;2.50;;;20.70;58.70;;;;;;5071813;28;20673;-86
2023/07/30 06:38:17;;;;;;;2.85;2.50;;;20.70;58.70;;;;;;5056293;28;20169;-86
2023/07/30 06:40:43;;;;;;;2.63;2.42;;;20.60;58.70;;;;;;5058483;28;20170;-85
2023/07/30 06:43:09;;;;;;;2.75;2.45;;;20.70;59.00;;;;;;5076595;28;20513;-87
2023/07/30 06:45:35;;;;;;;2.85;2.45;;;20.70;59.50;;;;;;5058927;28;20161;-87
2023/07/30 06:48:01;;;;;;;3.05;2.70;;;20.70;60.50;;;;;;5075216;28;20670;-87
2023/07/30 06:50:26;;;;;;;2.80;2.40;;;20.70;62.70;;;;;;5075579;28;20184;-86
2023/07/30 06:52:52;;;;;;;2.67;2.40;;;20.70;62.50;;;;;;5059013;28;20209;-87
2023/07/30 06:55:18;;;;;;;3.03;2.40;;;20.80;63.60;;;;;;5074969;28;20154;-85
2023/07/30 06:57:44;;;;;;;2.70;2.50;;;20.70;64.30;;;;;;5075008;28;20150;-87
2023/07/30 07:00:11;;;;;;;2.80;2.47;;;20.70;64.70;;;;;;5074860;28;20157;-86
2023/07/30 07:02:37;;;;;;;2.90;2.60;;;20.70;64.40;;;;;;5058180;28;20651;-84
2023/07/30 07:05:03;;;;;;;3.65;2.67;;;20.80;65.40;;;;;;5075985;28;20158;-85
2023/07/30 07:07:30;;;;;;;3.38;2.40;;;20.70;65.40;;;;;;5076345;28;20154;-86
2023/07/30 07:09:56;;;;;;;3.00;2.70;;;20.70;65.40;;;;;;5074344;28;20683;-86
2023/07/30 07:12:21;;;;;;;3.20;2.90;;;20.70;66.10;;;;;;5076010;28;20193;-84
2023/07/30 07:14:48;;;;;;;2.88;2.58;;;20.70;66.70;;;;;;5074617;28;20223;-88
2023/07/30 07:17:14;;;;;;;2.90;2.60;;;20.60;66.40;;;;;;5075807;28;20158;-83
2023/07/30 07:19:40;;;;;;;3.00;2.70;;;20.70;66.30;;;;;;5074775;28;20214;-88
2023/07/30 07:22:06;;;;;;;2.80;2.60;;;20.70;66.90;;;;;;5058046;28;20180;-86
2023/07/30 07:24:32;;;;;;;2.78;2.55;;;20.70;66.90;;;;;;5057758;28;20177;-85
2023/07/30 07:26:58;;;;;;;2.90;2.55;;;20.70;66.80;;;;;;5074607;28;20154;-85
2023/07/30 07:29:24;;;;;;;2.70;2.50;;;20.70;66.60;;;;;;5074646;28;20515;-87
2023/07/30 07:31:50;;;;;;;3.40;3.03;;;20.70;67.00;;;;;;5074744;28;20165;-84
2023/07/30 07:34:16;;;;;;;2.90;2.60;;;20.70;67.00;;;;;;5057551;28;20170;-86
2023/07/30 07:36:42;;;;;;;2.53;2.33;;;20.70;67.60;;;;;;5074295;28;20621;-87
2023/07/30 07:39:07;;;;;;;2.90;2.60;;;20.70;68.00;;;;;;5075490;28;20153;-83
2023/07/30 07:41:33;;;;;;;3.00;2.70;;;20.70;67.90;;;;;;5075279;28;20156;-84
2023/07/30 07:43:59;;;;;;;2.75;2.50;;;20.80;67.70;;;;;;5074397;28;20240;-83
2023/07/30 07:46:29;;;;;;;2.80;2.50;;;20.80;68.50;;;;;;5074611;28;20173;-86
2023/07/30 07:48:55;;;;;;;3.00;2.70;;;20.80;68.00;;;;;;5023221;28;20593;-87
2023/07/30 07:51:21;;;;;;;3.03;2.72;;;20.80;68.20;;;;;;5056762;28;20169;-85
2023/07/30 07:53:47;;;;;;;2.83;2.60;;;20.90;69.50;;;;;;5074126;28;20687;-86
2023/07/30 07:56:13;;;;;;;2.60;2.35;;;20.80;68.60;;;;;;5057104;28;20165;-84
2023/07/30 07:58:39;;;;;;;3.03;2.72;;;20.80;69.40;;;;;;5074157;28;20527;-86
2023/07/30 08:01:05;;;;;;;2.67;2.47;;;20.80;68.50;;;;;;5074082;28;20497;-84
2023/07/30 08:03:31;;;;;;;3.10;2.80;;;20.80;69.40;;;;;;5073672;28;20162;-86
2023/07/30 08:05:57;;;;;;;3.33;3.03;;;20.90;68.70;;;;;;5073713;28;20675;-86
2023/07/30 08:08:25;;;;;;;3.17;2.88;;;20.80;69.10;;;;;;5073648;28;20191;-87
2023/07/30 08:10:51;;;;;;;2.72;2.53;;;20.90;69.20;;;;;;5056605;28;20714;-86
2023/07/30 08:13:17;;;;;;;3.20;2.90;;;20.80;70.00;;;;;;5073597;28;20644;-86
2023/07/30 08:15:43;;;;;;;3.17;2.80;;;20.90;69.80;;;;;;5073830;28;20162;-84
2023/07/30 08:18:08;;;;;;;3.10;2.80;;;20.90;70.10;;;;;;5056945;28;20567;-84
2023/07/30 08:20:35;;;;;;;3.15;2.85;;;20.80;69.60;;;;;;5073862;28;20215;-84
2023/07/30 08:23:01;;;;;;;3.20;2.90;;;20.80;70.50;;;;;;5057170;28;20264;-86
2023/07/30 08:25:27;;;;;;;3.03;2.72;;;20.80;70.00;;;;;;5073238;28;20620;-85
2023/07/30 08:27:53;;;;;;;3.10;2.80;;;20.80;70.40;;;;;;5074411;28;20168;-87
2023/07/30 08:30:19;;;;;;;2.97;2.65;;;20.70;70.50;;;;;;5073180;28;20260;-84
2023/07/30 08:32:45;;;;;;;3.10;2.80;;;20.80;70.50;;;;;;5056438;28;20197;-85
2023/07/30 08:35:11;;;;;;;3.63;3.03;;;20.80;70.30;;;;;;5073094;28;20154;-85
2023/07/30 08:37:37;;;;;;;3.00;2.80;;;20.90;71.00;;;;;;5073063;28;20165;-85
2023/07/30 08:40:03;;;;;;;3.20;2.90;;;20.90;71.20;;;;;;5074185;28;20157;-88
2023/07/30 08:42:29;;;;;;;2.83;2.63;;;20.90;71.30;;;;;;5074179;28;20157;-86
2023/07/30 08:44:55;;;;;;;3.00;2.70;;;20.90;71.30;;;;;;5074303;28;20150;-85
2023/07/30 08:47:21;;;;;;;3.10;2.75;;;20.90;71.80;;;;;;5073956;28;20609;-84
2023/07/30 08:49:47;;;;;;;3.30;3.00;;;20.90;71.60;;;;;;5072921;28;20165;-86
2023/07/30 08:52:13;;;;;;;3.05;2.75;;;21.00;71.60;;;;;;5072653;28;20212;-86
2023/07/30 08:54:39;;;;;;;3.10;2.80;;;21.00;72.10;;;;;;5074319;28;20153;-86
2023/07/30 08:57:06;;;;;;;3.30;3.00;;;21.00;71.60;;;;;;5073919;28;20157;-84
2023/07/30 08:59:37;;;;;;;3.47;3.17;;;21.00;71.10;;;;;;5073802;28;20181;-86
2023/07/30 09:02:03;;;;;;;3.75;3.38;;;21.00;71.20;;;;;;5072532;28;20200;-84
2023/07/30 09:04:29;;;;;;;3.17;2.88;;;20.90;71.30;;;;;;5072883;28;20159;-85
2023/07/30 09:06:55;;;;;;;3.13;2.83;;;20.90;70.90;;;;;;5055800;28;20162;-84
2023/07/30 09:09:21;;;;;;;3.08;2.78;;;20.90;71.30;;;;;;5072439;28;20737;-87
2023/07/30 09:11:54;;;;;;;3.60;3.28;;;21.00;71.30;;;;;;5056617;28;20161;-84
2023/07/30 09:14:21;;;;;;;3.22;2.92;;;20.90;71.10;;;;;;5073687;28;20570;-84
2023/07/30 09:16:47;;;;;;;3.33;3.00;;;21.00;71.30;;;;;;5072354;28;20200;-87
2023/07/30 09:19:17;;;;;;;3.20;2.75;;;21.00;71.30;;;;;;5072333;28;20154;-86
2023/07/30 09:21:43;;;;;;;3.47;3.17;;;21.00;71.30;;;;;;5072245;28;20169;-83
2023/07/30 09:24:09;;;;;;;3.92;3.40;;;21.00;71.20;;;;;;5072230;28;20176;-84
2023/07/30 09:26:43;;;;;;;3.40;3.10;;;21.00;71.10;;;;;;5056306;28;20162;-86
2023/07/30 09:29:09;;;;;;;3.60;3.30;;;21.00;71.10;;;;;;5072277;28;20212;-85
2023/07/30 09:31:54;;;;;;;3.42;3.05;;;21.00;71.10;;;;;;5072418;28;20619;-85
2023/07/30 09:34:20;;;;;;;3.70;3.30;;;21.00;71.00;;;;;;5072411;28;20176;-84
2023/07/30 09:36:46;;;;;;;3.55;3.25;;;21.00;71.70;;;;;;5055398;28;20272;-86
2023/07/30 09:39:21;;;;;;;3.58;3.28;;;21.10;70.90;;;;;;5055377;28;20255;-88
2023/07/30 09:41:47;;;;;;;3.60;3.30;;;21.10;70.70;;;;;;5072235;28;20532;-82
2023/07/30 09:44:16;;;;;;;4.10;3.70;;;21.10;70.70;;;;;;5073205;28;20619;-86
2023/07/30 09:46:43;;;;;;;3.45;3.15;;;21.10;70.60;;;;;;5055378;28;20170;-85
2023/07/30 09:49:10;;;;;;;4.07;3.30;;;21.10;70.50;;;;;;5072235;28;20165;-84
2023/07/30 09:51:38;;;;;;;3.13;2.83;;;21.10;70.30;;;;;;5055946;28;20170;-85
2023/07/30 09:54:04;;;;;;;3.50;3.20;;;21.20;70.30;;;;;;5073243;28;20197;-87
2023/07/30 09:56:30;;;;;;;3.63;3.33;;;21.20;70.20;;;;;;5071885;28;20191;-84
2023/07/30 09:58:56;;;;;;;3.40;3.10;;;21.20;70.10;;;;;;5071893;28;20154;-84
2023/07/30 10:01:22;;;;;;;3.63;3.33;;;21.20;70.20;;;;;;5055709;28;20252;-84
2023/07/30 10:03:48;;;;;;;3.40;3.10;;;21.20;70.30;;;;;;5071786;28;20172;-86
2023/07/30 10:06:14;;;;;;;3.90;3.33;;;21.20;70.30;;;;;;5071996;28;20616;-85
2023/07/30 10:08:40;;;;;;;4.00;3.60;;;21.20;70.40;;;;;;5072112;28;20162;-86
2023/07/30 10:11:07;;;;;;;3.92;3.33;;;21.20;70.40;;;;;;5071559;28;20294;-84
2023/07/30 10:13:33;;;;;;;3.40;3.10;;;21.20;70.50;;;;;;5075216;28;20229;-86
2023/07/30 10:15:59;;;;;;;3.90;3.50;;;21.20;70.50;;;;;;5075823;28;20635;-85
2023/07/30 10:18:40;;;;;;;3.67;3.30;;;21.20;70.50;;;;;;5075790;28;20616;-86
2023/07/30 10:21:09;;;;;;;4.00;3.60;;;21.20;70.50;;;;;;5075801;28;20248;-88
2023/07/30 10:23:35;;;;;;;3.40;2.90;;;21.20;70.50;;;;;;5075597;28;20158;-84
2023/07/30 10:26:12;;;;;;;3.70;3.15;;;21.30;70.40;;;;;;5058881;28;20173;-85
2023/07/30 10:28:43;;;;;;;3.83;3.45;;;21.30;70.40;;;;;;5076112;28;20155;-83
2023/07/30 10:31:10;;;;;;;3.40;3.10;;;21.30;70.40;;;;;;5025857;28;20520;-86
2023/07/30 10:33:53;;;;;;;3.70;3.33;;;21.30;70.40;;;;;;5058546;28;20201;-86
2023/07/30 10:36:32;;;;;;;4.00;3.60;;;21.30;70.50;;;;;;5075422;28;20150;-84
2023/07/30 10:39:13;;;;;;;3.67;3.17;;;21.30;70.30;;;;;;5075338;28;20157;-86
2023/07/30 10:41:39;;;;;;;3.67;3.33;;;21.30;70.30;;;;;;5058930;28;20157;-85
2023/07/30 10:44:04;;;;;;;3.53;3.22;;;21.30;71.20;;;;;;5076407;28;20153;-84
2023/07/30 10:46:31;;;;;;;3.47;3.17;;;21.30;70.30;;;;;;5076626;28;20672;-84
2023/07/30 10:48:56;;;;;;;4.00;3.60;;;21.40;70.20;;;;;;5075291;28;20663;-87
2023/07/30 10:51:23;;;;;;;4.00;3.60;;;21.40;70.50;;;;;;5076320;28;20160;-88
2023/07/30 10:53:50;;;;;;;3.95;3.55;;;21.40;70.50;;;;;;5075519;28;20200;-85
2023/07/30 10:56:17;;;;;;;3.40;3.08;;;21.40;70.50;;;;;;5076398;28;20149;-87
2023/07/30 10:58:43;;;;;;;3.53;3.22;;;21.30;70.40;;;;;;5074885;28;20191;-84
2023/07/30 11:01:09;;;;;;;3.42;3.13;;;21.40;70.40;;;;;;5075266;28;20165;-87
2023/07/30 11:03:36;;;;;;;3.72;3.42;;;21.40;70.40;;;;;;5058495;28;20174;-88
2023/07/30 11:06:02;;;;;;;3.67;3.38;;;21.40;70.40;;;;;;5075100;28;20153;-87
2023/07/30 11:08:42;;;;;;;4.10;3.40;;;21.40;70.50;;;;;;5058885;28;20169;-84
2023/07/30 11:11:09;;;;;;;3.60;3.30;;;21.40;70.60;;;;;;5076603;28;20220;-86
2023/07/30 11:13:36;;;;;;;3.60;3.30;;;21.40;70.80;;;;;;5074626;28;20224;-84
2023/07/30 11:16:04;;;;;;;3.67;3.38;;;21.40;70.70;;;;;;5076055;28;20631;-86
2023/07/30 11:18:33;;;;;;;3.72;3.42;;;21.40;70.50;;;;;;5074379;28;20158;-86
2023/07/30 11:21:03;;;;;;;3.40;3.10;;;21.40;70.50;;;;;;5074826;28;20149;-84
2023/07/30 11:23:29;;;;;;;4.15;3.75;;;21.50;70.50;;;;;;5074434;28;20241;-87
2023/07/30 11:25:55;;;;;;;3.90;3.50;;;21.40;70.30;;;;;;5074581;28;20255;-87
2023/07/30 11:28:30;;;;;;;3.65;3.35;;;21.50;70.40;;;;;;5075567;28;20158;-84
2023/07/30 11:31:00;;;;;;;3.75;3.40;;;21.50;70.60;;;;;;5074404;28;20157;-84
2023/07/30 11:33:26;;;;;;;3.70;3.40;;;21.50;70.60;;;;;;5074151;28;20280;-85
2023/07/30 11:35:52;;;;;;;3.58;3.28;;;21.40;70.60;;;;;;5074428;28;20154;-86
2023/07/30 11:38:19;;;;;;;3.63;3.20;;;21.40;70.80;;;;;;5057917;28;20172;-86
2023/07/30 11:40:46;;;;;;;3.75;3.35;;;21.40;71.00;;;;;;5074097;28;20170;-86
2023/07/30 11:43:12;;;;;;;4.07;3.67;;;21.40;71.30;;;;;;5074682;28;20593;-84
2023/07/30 11:45:38;;;;;;;3.80;3.40;;;21.40;71.30;;;;;;5074069;28;20176;-87
2023/07/30 11:48:10;;;;;;;3.90;3.60;;;21.40;71.50;;;;;;5074074;28;20240;-83
2023/07/30 11:50:51;;;;;;;3.65;3.33;;;21.40;71.60;;;;;;5074421;28;20153;-86
2023/07/30 11:53:18;;;;;;;3.40;3.10;;;21.40;72.20;;;;;;5074555;28;20266;-84
2023/07/30 11:55:44;;;;;;;3.60;3.30;;;21.40;72.00;;;;;;5074402;28;20153;-86
2023/07/30 11:58:11;;;;;;;3.40;3.10;;;21.40;73.00;;;;;;5057585;28;20513;-85
2023/07/30 12:00:37;;;;;;;3.17;2.88;;;21.40;72.60;;;;;;5058125;28;20189;-84
2023/07/30 12:03:04;;;;;;;3.47;3.17;;;21.40;72.80;;;;;;5074020;28;20211;-86
2023/07/30 12:05:36;;;;;;;3.60;3.20;;;21.40;73.10;;;;;;5057023;28;20189;-86
2023/07/30 12:08:07;;;;;;;3.40;3.10;;;21.40;73.50;;;;;;5075142;28;20150;-88
2023/07/30 12:10:49;;;;;;;3.53;3.20;;;21.30;73.80;;;;;;5057169;28;20250;-85
2023/07/30 12:13:16;;;;;;;3.17;2.88;;;21.20;74.10;;;;;;5073792;28;20296;-88
2023/07/30 12:15:44;;;;;;;3.40;3.10;;;21.20;74.80;;;;;;5057734;28;20180;-87
2023/07/30 12:18:10;;;;;;;2.85;2.65;;;21.10;75.20;;;;;;5073474;28;20176;-86
2023/07/30 12:20:36;;;;;;;3.05;2.78;;;21.10;75.60;;;;;;5073540;28;20169;-87
2023/07/30 12:23:03;;;;;;;3.50;3.20;;;21.10;75.80;;;;;;5073489;28;20202;-83
2023/07/30 12:25:31;;;;;;;3.13;2.83;;;21.00;76.10;;;;;;5057384;28;20175;-83
2023/07/30 12:27:57;;;;;;;3.08;2.78;;;21.00;76.00;;;;;;5073512;28;20609;-85
2023/07/30 12:30:23;;;;;;;3.20;2.90;;;21.00;77.00;;;;;;5074406;28;20149;-86
2023/07/30 12:32:49;;;;;;;3.42;3.13;;;21.00;76.20;;;;;;5073005;28;20239;-85
2023/07/30 12:35:15;;;;;;;3.40;3.08;;;20.90;76.30;;;;;;5056149;28;20169;-83
2023/07/30 12:37:41;;;;;;;3.53;3.22;;;20.90;76.50;;;;;;5073143;28;20204;-85
2023/07/30 12:40:08;;;;;;;2.90;2.60;;;20.90;76.70;;;;;;5073001;28;20141;-84
2023/07/30 12:42:33;;;;;;;3.00;2.60;;;20.80;76.90;;;;;;5056408;28;20528;-86
2023/07/30 12:44:59;;;;;;;3.00;2.70;;;20.90;77.10;;;;;;5073228;28;20624;-84